• Join FlightAware (Why Join?)
  • Login
  • US Flag 
01:15AM EDT


 

Airport Tracker/Info


-or-


 

Live Flight TrackerFlight Track Log ✈ UCA3596 ✈ 07-Jan-2014 ✈ KBGM - KIAD

Flight Track Log - Related Links

Times and Time Zones

All times are in EST time to prevent confusion due to time zone crossing. See the UCA3596 flight status page for this flight to view local times or setup timezone preferences in your user account.

Time Position Orientation Groundspeed Altitude Reporting Facility
EST Latitude Longitude Course Direction KTS MPH feet Rate Location/Type
06:43PM 42.1569 -76.0692 212° Southwest 235 270 5,200  Level New York Center
06:44PM 42.1061 -76.0931 199° South 197 227 6,900 1,680 Climbing New York Center
06:45PM 42.0728 -76.1350 223° Southwest 191 220 8,600 1,500 Climbing New York Center
06:46PM 42.0378 -76.1769 222° Southwest 175 201 10,000 1,500 Climbing New York Center
06:47PM 41.9195 -76.1171 212° Southwest  Level Estimated
06:47PM 42.0008 -76.2100 214° Southwest 181 208 11,600  Level New York Center
06:48PM 41.9558 -76.2372 204° Southwest 186 214 13,000 1,500 Climbing New York Center
06:49PM 41.9003 -76.2686 203° Southwest 191 220 14,700 1,500 Climbing New York Center
06:50PM 41.8531 -76.2956 203° Southwest 191 220 16,000 600 Climbing New York Center
06:51PM 41.8039 -76.3247 204° Southwest 203 234 16,000  Level New York Center
06:52PM 41.7461 -76.3561 202° Southwest 220 253 16,100 60 Climbing New York Center
06:53PM 41.6756 -76.3947 202° Southwest 234 269 16,200  Climbing New York Center
06:54PM 41.6178 -76.4286 204° Southwest 240 276 16,200  Level New York Center
06:55PM 41.5581 -76.4597 201° Southwest 240 276 16,200 -120 Level New York Center
06:56PM 41.5003 -76.4936 204° Southwest 240 276 16,000 -120 Descending New York Center
06:57PM 41.4317 -76.5319 203° Southwest 240 276 16,000  Level New York Center
06:58PM 41.3717 -76.5656 203° Southwest 240 276 16,000  Level New York Center
06:59PM 41.3097 -76.5989 202° Southwest 240 276 16,000  Level New York Center
07:00PM 41.2561 -76.6275 202° Southwest 240 276 16,000  Level New York Center
07:01PM 41.1961 -76.6608 203° Southwest 240 276 16,000  Level New York Center
07:02PM 41.1275 -76.6989 203° Southwest 240 276 16,000  Level New York Center
07:03PM 41.0675 -76.7350 204° Southwest 240 276 16,000  Level New York Center
07:04PM 41.0075 -76.7656 201° Southwest 240 276 16,000  Level New York Center
07:05PM 40.9475 -76.7986 203° Southwest 240 276 16,000  Level New York Center
07:06PM 40.8875 -76.8317 203° Southwest 240 276 16,000  Level New York Center
07:07PM 40.8339 -76.8628 204° Southwest 240 276 16,000 -60 Level New York Center
07:08PM 40.7633 -76.8947 199° South 240 276 15,900 -60 Descending New York Center
07:09PM 40.7019 -76.9139 193° South 246 283 15,900  Level New York Center
07:10PM 40.6278 -76.9375 194° South 251 289 16,000  Climbing New York Center
07:11PM 40.5686 -76.9539 192° South 251 289 16,000  Level New York Center
07:12PM 40.4944 -76.9772 193° South 251 289 16,000  Level New York Center
07:13PM 40.4328 -76.9964 193° South 251 289 16,000 -420 Level New York Center
07:14PM 40.3567 -77.0194 193° South 251 289 15,200 -960 Descending New York Center
07:16PM 40.1833 -77.0667 192° South 264 304 12,800 -1,020 Descending Potomac TRACON
07:17PM 40.1167 -77.1000 201° Southwest 259 298 11,800 -1,020 Descending Potomac TRACON
07:18PM 40.0500 -77.1167 191° South 264 304 10,800 -1,020 Descending Potomac TRACON
07:19PM 39.9833 -77.1333 191° South 259 298 9,800 -900 Descending Potomac TRACON
07:20PM 39.9000 -77.1500 189° South 254 292 9,100 -660 Descending Potomac TRACON
07:21PM 39.8500 -77.1667 194° South 247 284 8,600 -840 Descending Potomac TRACON
07:22PM 39.7833 -77.2000 201° Southwest 243 280 7,600 -840 Descending Potomac TRACON
07:23PM 39.7167 -77.2167 191° South 245 282 7,000 -300 Descending Potomac TRACON
07:24PM 39.6667 -77.2500 207° Southwest 223 257 7,000 -60 Level Potomac TRACON
07:25PM 39.6333 -77.3167 237° Southwest 217 250 6,900 -360 Descending Potomac TRACON
07:26PM 39.5833 -77.3500 207° Southwest 232 267 6,300 -780 Descending Potomac TRACON
07:27PM 39.5167 -77.3500 180° South 248 285 5,400 -1,020 Descending Potomac TRACON
07:28PM 39.4333 -77.3667 189° South 244 281 4,200 -660 Descending Potomac TRACON
07:29PM 39.3667 -77.3667 180° South 241 277 4,100 -60 Descending Potomac TRACON
07:30PM 39.3000 -77.3667 180° South 228 262 4,100  Level Potomac TRACON
07:31PM 39.2500 -77.3667 180° South 227 261 4,100 -60 Level Potomac TRACON
07:32PM 39.1667 -77.3667 180° South 228 262 4,000 -60 Descending Potomac TRACON
07:33PM 39.1000 -77.3667 180° South 229 264 4,000 -180 Level Potomac TRACON
07:34PM 39.0333 -77.3500 169° South 228 262 3,700 -420 Descending Potomac TRACON
07:35PM 38.9833 -77.3667 195° South 229 264 3,200 -360 Descending Potomac TRACON
07:36PM 38.9167 -77.3500 169° South 230 265 3,100 -420 Descending Potomac TRACON
07:37PM 38.8667 -77.3667 195° South 227 261 2,500 -540 Descending Potomac TRACON
07:38PM 38.8167 -77.4000 207° Southwest 220 253 2,100 -300 Descending Potomac TRACON
07:39PM 38.8500 -77.4333 322° Northwest 136 157 2,000 -420 Descending Potomac TRACON
07:40PM 38.8833 -77.4333 360° North 96 110 1,300 -660 Descending Potomac TRACON
07:41PM 38.9167 -77.4333 360° North 101 116 700 -600 Descending Potomac TRACON
07:43PM 38.9333 -77.4500 349° North  Level FlightAware Approximate
07:50PM 38.9474 -77.4599 349° North  Level Estimated